sensor_id;sensor_type;location;lat;lon;timestamp;pressure;altitude;pressure_sealevel;temperature
70415;BMP280;57837;52.064;113.478;2023-04-15T00:00:30;93330.22;;;10.94
70415;BMP280;57837;52.064;113.478;2023-04-15T00:03:35;93320.97;;;12.20
70415;BMP280;57837;52.064;113.478;2023-04-15T00:06:39;93307.56;;;12.41
70415;BMP280;57837;52.064;113.478;2023-04-15T00:09:44;93310.69;;;12.66
70415;BMP280;57837;52.064;113.478;2023-04-15T00:12:48;93304.88;;;12.97
70415;BMP280;57837;52.064;113.478;2023-04-15T00:15:51;93302.59;;;13.04
70415;BMP280;57837;52.064;113.478;2023-04-15T00:18:55;93303.75;;;13.29
70415;BMP280;57837;52.064;113.478;2023-04-15T00:21:59;93298.25;;;12.96
70415;BMP280;57837;52.064;113.478;2023-04-15T00:25:04;93302.16;;;13.68
70415;BMP280;57837;52.064;113.478;2023-04-15T00:28:07;93297.50;;;13.47
70415;BMP280;57837;52.064;113.478;2023-04-15T00:31:11;93291.72;;;14.00
70415;BMP280;57837;52.064;113.478;2023-04-15T00:34:15;93280.75;;;15.25
70415;BMP280;57837;52.064;113.478;2023-04-15T00:37:19;93276.75;;;16.32
70415;BMP280;57837;52.064;113.478;2023-04-15T00:40:23;93274.13;;;17.14
70415;BMP280;57837;52.064;113.478;2023-04-15T00:43:28;93278.84;;;17.21
70415;BMP280;57837;52.064;113.478;2023-04-15T00:46:34;93265.59;;;16.31
70415;BMP280;57837;52.064;113.478;2023-04-15T00:49:39;93263.44;;;16.36
70415;BMP280;57837;52.064;113.478;2023-04-15T00:52:43;93253.72;;;15.28
70415;BMP280;57837;52.064;113.478;2023-04-15T00:55:47;93256.56;;;15.36
70415;BMP280;57837;52.064;113.478;2023-04-15T00:58:50;93243.22;;;15.73
70415;BMP280;57837;52.064;113.478;2023-04-15T01:01:55;93245.97;;;16.08
70415;BMP280;57837;52.064;113.478;2023-04-15T01:04:59;93231.66;;;16.26
70415;BMP280;57837;52.064;113.478;2023-04-15T01:08:04;93235.41;;;15.73
70415;BMP280;57837;52.064;113.478;2023-04-15T01:11:09;93230.97;;;15.23
70415;BMP280;57837;52.064;113.478;2023-04-15T01:14:15;93220.72;;;15.48
70415;BMP280;57837;52.064;113.478;2023-04-15T01:17:19;93210.47;;;15.83
70415;BMP280;57837;52.064;113.478;2023-04-15T01:20:23;93199.47;;;16.83
70415;BMP280;57837;52.064;113.478;2023-04-15T01:23:27;93197.41;;;17.97
70415;BMP280;57837;52.064;113.478;2023-04-15T01:26:31;93192.41;;;18.50
70415;BMP280;57837;52.064;113.478;2023-04-15T01:29:37;93186.34;;;17.86
70415;BMP280;57837;52.064;113.478;2023-04-15T01:32:41;93177.84;;;18.17
70415;BMP280;57837;52.064;113.478;2023-04-15T01:35:45;93168.25;;;18.38
70415;BMP280;57837;52.064;113.478;2023-04-15T01:38:50;93169.91;;;18.04
70415;BMP280;57837;52.064;113.478;2023-04-15T01:41:56;93155.44;;;17.17
70415;BMP280;57837;52.064;113.478;2023-04-15T01:45:00;93153.91;;;17.70
70415;BMP280;57837;52.064;113.478;2023-04-15T01:48:04;93154.84;;;17.91
70415;BMP280;57837;52.064;113.478;2023-04-15T01:51:11;93149.09;;;17.31
70415;BMP280;57837;52.064;113.478;2023-04-15T01:54:15;93138.47;;;16.75
70415;BMP280;57837;52.064;113.478;2023-04-15T01:57:19;93139.09;;;17.35
70415;BMP280;57837;52.064;113.478;2023-04-15T02:00:25;93137.34;;;17.81
70415;BMP280;57837;52.064;113.478;2023-04-15T02:03:28;93136.88;;;17.63
70415;BMP280;57837;52.064;113.478;2023-04-15T02:06:32;93132.59;;;17.17
70415;BMP280;57837;52.064;113.478;2023-04-15T02:09:36;93115.69;;;15.99
70415;BMP280;57837;52.064;113.478;2023-04-15T02:12:42;93118.84;;;15.07
70415;BMP280;57837;52.064;113.478;2023-04-15T02:15:47;93115.47;;;15.34
70415;BMP280;57837;52.064;113.478;2023-04-15T02:18:53;93111.06;;;15.70
70415;BMP280;57837;52.064;113.478;2023-04-15T02:21:57;93103.22;;;15.75
70415;BMP280;57837;52.064;113.478;2023-04-15T02:25:00;93101.44;;;15.42
70415;BMP280;57837;52.064;113.478;2023-04-15T02:28:06;93094.34;;;15.43
70415;BMP280;57837;52.064;113.478;2023-04-15T02:31:09;93093.06;;;16.48
70415;BMP280;57837;52.064;113.478;2023-04-15T02:34:12;93086.53;;;17.33
70415;BMP280;57837;52.064;113.478;2023-04-15T02:37:19;93086.06;;;17.53
70415;BMP280;57837;52.064;113.478;2023-04-15T02:40:22;93078.38;;;16.94
70415;BMP280;57837;52.064;113.478;2023-04-15T02:43:26;93067.06;;;17.47
70415;BMP280;57837;52.064;113.478;2023-04-15T02:46:29;93062.22;;;17.38
70415;BMP280;57837;52.064;113.478;2023-04-15T02:49:33;93049.53;;;17.80
70415;BMP280;57837;52.064;113.478;2023-04-15T02:52:40;93044.47;;;18.00
70415;BMP280;57837;52.064;113.478;2023-04-15T02:55:45;93034.63;;;16.94
70415;BMP280;57837;52.064;113.478;2023-04-15T02:58:48;93036.78;;;16.42
70415;BMP280;57837;52.064;113.478;2023-04-15T03:01:52;93020.41;;;15.81
70415;BMP280;57837;52.064;113.478;2023-04-15T03:04:57;93015.19;;;15.76
70415;BMP280;57837;52.064;113.478;2023-04-15T03:08:02;93000.41;;;15.89
70415;BMP280;57837;52.064;113.478;2023-04-15T03:11:06;92989.91;;;16.55
70415;BMP280;57837;52.064;113.478;2023-04-15T03:14:11;92987.28;;;16.01
70415;BMP280;57837;52.064;113.478;2023-04-15T03:17:19;92975.94;;;15.57
70415;BMP280;57837;52.064;113.478;2023-04-15T03:20:23;92973.22;;;15.33
70415;BMP280;57837;52.064;113.478;2023-04-15T03:23:27;92969.84;;;15.43
70415;BMP280;57837;52.064;113.478;2023-04-15T03:26:32;92960.84;;;15.44
70415;BMP280;57837;52.064;113.478;2023-04-15T03:29:42;92948.69;;;14.37
70415;BMP280;57837;52.064;113.478;2023-04-15T03:32:48;92953.66;;;14.02
70415;BMP280;57837;52.064;113.478;2023-04-15T03:35:52;92947.97;;;14.15
70415;BMP280;57837;52.064;113.478;2023-04-15T03:38:56;92947.28;;;13.92
70415;BMP280;57837;52.064;113.478;2023-04-15T03:42:00;92934.72;;;13.68
70415;BMP280;57837;52.064;113.478;2023-04-15T03:45:06;92929.50;;;13.68
70415;BMP280;57837;52.064;113.478;2023-04-15T03:48:09;92923.63;;;14.01
70415;BMP280;57837;52.064;113.478;2023-04-15T03:51:19;92914.84;;;13.65
70415;BMP280;57837;52.064;113.478;2023-04-15T03:54:22;92906.31;;;13.31
70415;BMP280;57837;52.064;113.478;2023-04-15T03:57:25;92904.63;;;13.22
70415;BMP280;57837;52.064;113.478;2023-04-15T04:00:29;92890.06;;;13.64
70415;BMP280;57837;52.064;113.478;2023-04-15T04:03:32;92878.72;;;13.89
70415;BMP280;57837;52.064;113.478;2023-04-15T04:06:36;92879.16;;;13.77
70415;BMP280;57837;52.064;113.478;2023-04-15T04:09:40;92877.50;;;13.68
70415;BMP280;57837;52.064;113.478;2023-04-15T04:12:43;92869.22;;;13.47
70415;BMP280;57837;52.064;113.478;2023-04-15T04:15:47;92868.06;;;13.65
70415;BMP280;57837;52.064;113.478;2023-04-15T04:18:51;92866.16;;;13.82
70415;BMP280;57837;52.064;113.478;2023-04-15T04:21:54;92858.34;;;13.60
70415;BMP280;57837;52.064;113.478;2023-04-15T04:24:58;92853.59;;;13.47
70415;BMP280;57837;52.064;113.478;2023-04-15T04:28:02;92835.63;;;13.66
70415;BMP280;57837;52.064;113.478;2023-04-15T04:31:06;92840.59;;;13.42
70415;BMP280;57837;52.064;113.478;2023-04-15T04:34:10;92837.56;;;13.38
70415;BMP280;57837;52.064;113.478;2023-04-15T04:37:14;92835.91;;;13.57
70415;BMP280;57837;52.064;113.478;2023-04-15T04:40:18;92826.19;;;13.52
70415;BMP280;57837;52.064;113.478;2023-04-15T04:43:21;92815.09;;;13.35
70415;BMP280;57837;52.064;113.478;2023-04-15T04:46:25;92811.31;;;13.36
70415;BMP280;57837;52.064;113.478;2023-04-15T04:49:29;92806.13;;;13.36
70415;BMP280;57837;52.064;113.478;2023-04-15T04:52:33;92797.56;;;13.02
70415;BMP280;57837;52.064;113.478;2023-04-15T04:55:37;92797.31;;;12.83
70415;BMP280;57837;52.064;113.478;2023-04-15T04:58:40;92786.13;;;12.55
70415;BMP280;57837;52.064;113.478;2023-04-15T05:01:44;92774.63;;;12.72
70415;BMP280;57837;52.064;113.478;2023-04-15T05:04:48;92768.66;;;12.61
70415;BMP280;57837;52.064;113.478;2023-04-15T05:07:54;92773.19;;;12.71
70415;BMP280;57837;52.064;113.478;2023-04-15T05:10:57;92767.50;;;12.62
70415;BMP280;57837;52.064;113.478;2023-04-15T05:14:01;92758.06;;;12.64
70415;BMP280;57837;52.064;113.478;2023-04-15T05:17:04;92754.09;;;12.86
70415;BMP280;57837;52.064;113.478;2023-04-15T05:20:07;92747.97;;;12.83
70415;BMP280;57837;52.064;113.478;2023-04-15T05:23:11;92736.41;;;12.78
70415;BMP280;57837;52.064;113.478;2023-04-15T05:26:15;92731.41;;;12.75
70415;BMP280;57837;52.064;113.478;2023-04-15T05:29:18;92720.31;;;12.80
70415;BMP280;57837;52.064;113.478;2023-04-15T05:32:21;92709.19;;;12.63
70415;BMP280;57837;52.064;113.478;2023-04-15T05:35:25;92704.03;;;12.68
70415;BMP280;57837;52.064;113.478;2023-04-15T05:38:29;92702.59;;;12.67
70415;BMP280;57837;52.064;113.478;2023-04-15T05:41:33;92705.22;;;12.84
70415;BMP280;57837;52.064;113.478;2023-04-15T05:44:36;92697.91;;;12.88
70415;BMP280;57837;52.064;113.478;2023-04-15T05:47:40;92693.66;;;13.02
70415;BMP280;57837;52.064;113.478;2023-04-15T05:50:43;92686.81;;;13.04
70415;BMP280;57837;52.064;113.478;2023-04-15T05:53:47;92683.97;;;12.74
70415;BMP280;57837;52.064;113.478;2023-04-15T05:56:50;92684.94;;;12.82
70415;BMP280;57837;52.064;113.478;2023-04-15T05:59:54;92675.22;;;12.94
70415;BMP280;57837;52.064;113.478;2023-04-15T06:02:59;92669.09;;;12.92
70415;BMP280;57837;52.064;113.478;2023-04-15T06:06:03;92666.28;;;13.06
70415;BMP280;57837;52.064;113.478;2023-04-15T06:09:07;92651.88;;;13.05
70415;BMP280;57837;52.064;113.478;2023-04-15T06:12:10;92660.84;;;13.10
70415;BMP280;57837;52.064;113.478;2023-04-15T06:15:15;92657.75;;;13.11
70415;BMP280;57837;52.064;113.478;2023-04-15T06:18:19;92648.75;;;13.23
70415;BMP280;57837;52.064;113.478;2023-04-15T06:21:22;92647.09;;;13.20
70415;BMP280;57837;52.064;113.478;2023-04-15T06:24:26;92630.38;;;13.05
70415;BMP280;57837;52.064;113.478;2023-04-15T06:27:30;92621.88;;;12.99
70415;BMP280;57837;52.064;113.478;2023-04-15T06:30:35;92616.19;;;12.95
70415;BMP280;57837;52.064;113.478;2023-04-15T06:33:39;92605.56;;;13.09
70415;BMP280;57837;52.064;113.478;2023-04-15T06:36:42;92603.41;;;13.19
70415;BMP280;57837;52.064;113.478;2023-04-15T06:39:46;92605.78;;;13.11
70415;BMP280;57837;52.064;113.478;2023-04-15T06:42:50;92593.28;;;13.10
70415;BMP280;57837;52.064;113.478;2023-04-15T06:45:54;92583.63;;;13.05
70415;BMP280;57837;52.064;113.478;2023-04-15T06:48:58;92583.63;;;12.99
70415;BMP280;57837;52.064;113.478;2023-04-15T06:52:02;92571.78;;;13.09
70415;BMP280;57837;52.064;113.478;2023-04-15T06:55:07;92571.97;;;13.22
70415;BMP280;57837;52.064;113.478;2023-04-15T06:58:11;92560.19;;;13.16
70415;BMP280;57837;52.064;113.478;2023-04-15T07:01:14;92556.41;;;13.11
70415;BMP280;57837;52.064;113.478;2023-04-15T07:04:18;92565.84;;;13.20
70415;BMP280;57837;52.064;113.478;2023-04-15T07:07:23;92552.16;;;13.14
70415;BMP280;57837;52.064;113.478;2023-04-15T07:10:26;92549.19;;;12.76
70415;BMP280;57837;52.064;113.478;2023-04-15T07:13:31;92552.25;;;12.69
70415;BMP280;57837;52.064;113.478;2023-04-15T07:16:35;92546.59;;;12.65
70415;BMP280;57837;52.064;113.478;2023-04-15T07:19:38;92529.59;;;12.75
70415;BMP280;57837;52.064;113.478;2023-04-15T07:22:43;92532.16;;;12.87
70415;BMP280;57837;52.064;113.478;2023-04-15T07:25:47;92537.13;;;12.84
70415;BMP280;57837;52.064;113.478;2023-04-15T07:28:51;92519.44;;;12.77
70415;BMP280;57837;52.064;113.478;2023-04-15T07:31:54;92514.25;;;12.77
70415;BMP280;57837;52.064;113.478;2023-04-15T07:34:59;92509.47;;;12.87
70415;BMP280;57837;52.064;113.478;2023-04-15T07:38:02;92513.25;;;12.97
70415;BMP280;57837;52.064;113.478;2023-04-15T07:41:06;92512.56;;;12.91
70415;BMP280;57837;52.064;113.478;2023-04-15T07:44:10;92504.28;;;12.93
70415;BMP280;57837;52.064;113.478;2023-04-15T07:47:15;92492.25;;;12.90
70415;BMP280;57837;52.064;113.478;2023-04-15T07:50:19;92493.00;;;12.79
70415;BMP280;57837;52.064;113.478;2023-04-15T07:53:23;92483.03;;;12.89
70415;BMP280;57837;52.064;113.478;2023-04-15T07:56:26;92474.75;;;12.96
70415;BMP280;57837;52.064;113.478;2023-04-15T07:59:30;92474.06;;;12.95
70415;BMP280;57837;52.064;113.478;2023-04-15T08:02:35;92475.03;;;12.92
70415;BMP280;57837;52.064;113.478;2023-04-15T08:05:42;92466.50;;;12.92
70415;BMP280;57837;52.064;113.478;2023-04-15T08:08:45;92468.84;;;13.01
70415;BMP280;57837;52.064;113.478;2023-04-15T08:11:50;92467.22;;;12.98
70415;BMP280;57837;52.064;113.478;2023-04-15T08:14:54;92453.50;;;13.03
70415;BMP280;57837;52.064;113.478;2023-04-15T08:17:59;92453.03;;;12.99
70415;BMP280;57837;52.064;113.478;2023-04-15T08:21:03;92441.69;;;13.02
70415;BMP280;57837;52.064;113.478;2023-04-15T08:24:07;92435.81;;;12.90
70415;BMP280;57837;52.064;113.478;2023-04-15T08:27:11;92430.19;;;12.86
70415;BMP280;57837;52.064;113.478;2023-04-15T08:30:14;92425.00;;;12.80
70415;BMP280;57837;52.064;113.478;2023-04-15T08:33:18;92415.13;;;12.79
70415;BMP280;57837;52.064;113.478;2023-04-15T08:36:21;92412.28;;;12.77
70415;BMP280;57837;52.064;113.478;2023-04-15T08:39:25;92414.16;;;12.76
70415;BMP280;57837;52.064;113.478;2023-04-15T08:42:36;92415.13;;;12.79
70415;BMP280;57837;52.064;113.478;2023-04-15T08:45:39;92401.88;;;12.77
70415;BMP280;57837;52.064;113.478;2023-04-15T08:48:46;92391.75;;;12.79
70415;BMP280;57837;52.064;113.478;2023-04-15T08:51:49;92389.16;;;12.79
70415;BMP280;57837;52.064;113.478;2023-04-15T08:54:57;92386.75;;;12.81
70415;BMP280;57837;52.064;113.478;2023-04-15T08:58:01;92380.88;;;12.75
70415;BMP280;57837;52.064;113.478;2023-04-15T09:01:05;92386.06;;;12.75
70415;BMP280;57837;52.064;113.478;2023-04-15T09:04:10;92380.16;;;12.74
70415;BMP280;57837;52.064;113.478;2023-04-15T09:07:14;92381.63;;;12.70
70415;BMP280;57837;52.064;113.478;2023-04-15T09:10:18;92380.66;;;12.73
70415;BMP280;57837;52.064;113.478;2023-04-15T09:13:22;92376.41;;;12.75
70415;BMP280;57837;52.064;113.478;2023-04-15T09:16:26;92368.38;;;12.79
70415;BMP280;57837;52.064;113.478;2023-04-15T09:19:31;92373.72;;;12.87
70415;BMP280;57837;52.064;113.478;2023-04-15T09:22:37;92377.09;;;12.81
70415;BMP280;57837;52.064;113.478;2023-04-15T09:25:41;92363.47;;;12.64
70415;BMP280;57837;52.064;113.478;2023-04-15T09:28:45;92360.63;;;12.62
70415;BMP280;57837;52.064;113.478;2023-04-15T09:31:49;92360.63;;;12.62
70415;BMP280;57837;52.064;113.478;2023-04-15T09:34:53;92358.56;;;12.55
70415;BMP280;57837;52.064;113.478;2023-04-15T09:38:07;92361.63;;;12.48
70415;BMP280;57837;52.064;113.478;2023-04-15T09:41:17;92344.03;;;12.24
70415;BMP280;57837;52.064;113.478;2023-04-15T09:44:25;92348.00;;;12.36
70415;BMP280;57837;52.064;113.478;2023-04-15T09:47:31;92342.75;;;12.48
70415;BMP280;57837;52.064;113.478;2023-04-15T09:50:41;92342.22;;;12.60
70415;BMP280;57837;52.064;113.478;2023-04-15T09:53:44;92333.97;;;12.62
70415;BMP280;57837;52.064;113.478;2023-04-15T09:56:48;92316.25;;;12.71
70415;BMP280;57837;52.064;113.478;2023-04-15T09:59:52;92313.63;;;12.77
70415;BMP280;57837;52.064;113.478;2023-04-15T10:02:56;92312.66;;;12.74
70415;BMP280;57837;52.064;113.478;2023-04-15T10:06:00;92312.63;;;12.80
70415;BMP280;57837;52.064;113.478;2023-04-15T10:09:05;92304.41;;;13.11
70415;BMP280;57837;52.064;113.478;2023-04-15T10:12:09;92314.22;;;12.89
70415;BMP280;57837;52.064;113.478;2023-04-15T10:15:16;92317.03;;;12.55
70415;BMP280;57837;52.064;113.478;2023-04-15T10:18:20;92303.69;;;12.29
70415;BMP280;57837;52.064;113.478;2023-04-15T10:21:27;92300.66;;;12.14
70415;BMP280;57837;52.064;113.478;2023-04-15T10:24:30;92303.28;;;11.97
70415;BMP280;57837;52.064;113.478;2023-04-15T10:27:35;92297.44;;;11.80
70415;BMP280;57837;52.064;113.478;2023-04-15T10:30:39;92296.75;;;11.63
70415;BMP280;57837;52.064;113.478;2023-04-15T10:33:43;92301.44;;;11.47
70415;BMP280;57837;52.064;113.478;2023-04-15T10:36:49;92297.22;;;11.33
70415;BMP280;57837;52.064;113.478;2023-04-15T10:39:53;92304.53;;;11.18
70415;BMP280;57837;52.064;113.478;2023-04-15T10:43:00;92296.50;;;11.10
70415;BMP280;57837;52.064;113.478;2023-04-15T10:46:06;92296.47;;;10.99
70415;BMP280;57837;52.064;113.478;2023-04-15T10:49:14;92296.94;;;10.87
70415;BMP280;57837;52.064;113.478;2023-04-15T10:52:23;92294.56;;;10.77
70415;BMP280;57837;52.064;113.478;2023-04-15T10:55:32;92300.91;;;10.71
70415;BMP280;57837;52.064;113.478;2023-04-15T10:58:42;92283.72;;;10.62
70415;BMP280;57837;52.064;113.478;2023-04-15T11:01:53;92289.34;;;10.55
70415;BMP280;57837;52.064;113.478;2023-04-15T11:04:58;92288.34;;;10.47
70415;BMP280;57837;52.064;113.478;2023-04-15T11:08:02;92285.28;;;10.38
70415;BMP280;57837;52.064;113.478;2023-04-15T11:11:06;92277.00;;;10.28
70415;BMP280;57837;52.064;113.478;2023-04-15T11:14:14;92273.88;;;10.18
70415;BMP280;57837;52.064;113.478;2023-04-15T11:17:27;92262.13;;;10.06
70415;BMP280;57837;52.064;113.478;2023-04-15T11:20:31;92248.66;;;9.97
70415;BMP280;57837;52.064;113.478;2023-04-15T11:23:40;92238.50;;;9.87
70415;BMP280;57837;52.064;113.478;2023-04-15T11:26:46;92236.38;;;9.80
70415;BMP280;57837;52.064;113.478;2023-04-15T11:29:50;92249.25;;;9.75
70415;BMP280;57837;52.064;113.478;2023-04-15T11:32:58;92262.13;;;9.69
70415;BMP280;57837;52.064;113.478;2023-04-15T11:36:02;92267.25;;;9.64
70415;BMP280;57837;52.064;113.478;2023-04-15T11:39:06;92270.50;;;9.59
70415;BMP280;57837;52.064;113.478;2023-04-15T11:42:16;92270.75;;;9.55
70415;BMP280;57837;52.064;113.478;2023-04-15T11:45:20;92268.09;;;9.49
70415;BMP280;57837;52.064;113.478;2023-04-15T11:48:32;92276.06;;;9.46
70415;BMP280;57837;52.064;113.478;2023-04-15T11:51:36;92279.31;;;9.41
70415;BMP280;57837;52.064;113.478;2023-04-15T11:54:39;92286.09;;;9.38
70415;BMP280;57837;52.064;113.478;2023-04-15T11:57:43;92287.19;;;9.32
70415;BMP280;57837;52.064;113.478;2023-04-15T12:00:57;92290.47;;;9.27
70415;BMP280;57837;52.064;113.478;2023-04-15T12:04:10;92276.59;;;9.24
70415;BMP280;57837;52.064;113.478;2023-04-15T12:07:14;92294.63;;;9.19
70415;BMP280;57837;52.064;113.478;2023-04-15T12:10:18;92281.19;;;9.14
70415;BMP280;57837;52.064;113.478;2023-04-15T12:13:22;92283.97;;;9.11
70415;BMP280;57837;52.064;113.478;2023-04-15T12:16:27;92278.56;;;9.09
70415;BMP280;57837;52.064;113.478;2023-04-15T12:19:34;92277.59;;;9.06
70415;BMP280;57837;52.064;113.478;2023-04-15T12:22:39;92281.09;;;9.03
70415;BMP280;57837;52.064;113.478;2023-04-15T12:25:42;92273.34;;;9.03
70415;BMP280;57837;52.064;113.478;2023-04-15T12:28:46;92277.34;;;9.04
70415;BMP280;57837;52.064;113.478;2023-04-15T12:32:13;92274.31;;;9.00
70415;BMP280;57837;52.064;113.478;2023-04-15T12:35:17;92270.50;;;8.96
70415;BMP280;57837;52.064;113.478;2023-04-15T12:38:24;92273.03;;;8.90
70415;BMP280;57837;52.064;113.478;2023-04-15T12:41:27;92277.84;;;8.83
70415;BMP280;57837;52.064;113.478;2023-04-15T12:44:32;92276.19;;;8.80
70415;BMP280;57837;52.064;113.478;2023-04-15T12:47:36;92275.66;;;8.75
70415;BMP280;57837;52.064;113.478;2023-04-15T12:50:40;92280.31;;;8.71
70415;BMP280;57837;52.064;113.478;2023-04-15T12:53:44;92274.22;;;8.69
70415;BMP280;57837;52.064;113.478;2023-04-15T12:56:49;92272.28;;;8.64
70415;BMP280;57837;52.064;113.478;2023-04-15T12:59:53;92272.47;;;8.60
70415;BMP280;57837;52.064;113.478;2023-04-15T13:02:56;92275.94;;;8.57
70415;BMP280;57837;52.064;113.478;2023-04-15T13:06:00;92270.25;;;8.53
70415;BMP280;57837;52.064;113.478;2023-04-15T13:09:06;92263.19;;;8.48
70415;BMP280;57837;52.064;113.478;2023-04-15T13:12:10;92265.06;;;8.48
70415;BMP280;57837;52.064;113.478;2023-04-15T13:15:16;92272.06;;;8.47
70415;BMP280;57837;52.064;113.478;2023-04-15T13:18:22;92261.72;;;8.42
70415;BMP280;57837;52.064;113.478;2023-04-15T13:21:26;92269.19;;;8.40
70415;BMP280;57837;52.064;113.478;2023-04-15T13:24:30;92260.50;;;8.37
70415;BMP280;57837;52.064;113.478;2023-04-15T13:27:34;92263.06;;;8.37
70415;BMP280;57837;52.064;113.478;2023-04-15T13:30:38;92258.09;;;8.33
70415;BMP280;57837;52.064;113.478;2023-04-15T13:33:41;92254.81;;;8.33
70415;BMP280;57837;52.064;113.478;2023-04-15T13:36:45;92250.38;;;8.33
70415;BMP280;57837;52.064;113.478;2023-04-15T13:39:49;92246.84;;;8.31
70415;BMP280;57837;52.064;113.478;2023-04-15T13:42:52;92243.72;;;8.27
70415;BMP280;57837;52.064;113.478;2023-04-15T13:45:56;92247.19;;;8.24
70415;BMP280;57837;52.064;113.478;2023-04-15T13:48:59;92235.47;;;8.23
70415;BMP280;57837;52.064;113.478;2023-04-15T13:52:03;92226.09;;;8.20
70415;BMP280;57837;52.064;113.478;2023-04-15T13:55:07;92234.72;;;8.17
70415;BMP280;57837;52.064;113.478;2023-04-15T13:58:22;92233.31;;;8.16
70415;BMP280;57837;52.064;113.478;2023-04-15T14:01:27;92216.16;;;8.13
70415;BMP280;57837;52.064;113.478;2023-04-15T14:04:31;92211.94;;;8.10
70415;BMP280;57837;52.064;113.478;2023-04-15T14:07:35;92215.66;;;8.09
70415;BMP280;57837;52.064;113.478;2023-04-15T14:10:38;92208.63;;;8.09
70415;BMP280;57837;52.064;113.478;2023-04-15T14:13:44;92209.34;;;8.10
70415;BMP280;57837;52.064;113.478;2023-04-15T14:16:46;92199.72;;;8.10
70415;BMP280;57837;52.064;113.478;2023-04-15T14:19:50;92193.19;;;8.09
70415;BMP280;57837;52.064;113.478;2023-04-15T14:22:53;92185.19;;;8.07
70415;BMP280;57837;52.064;113.478;2023-04-15T14:25:57;92184.91;;;8.05
70415;BMP280;57837;52.064;113.478;2023-04-15T14:29:00;92183.06;;;8.06
70415;BMP280;57837;52.064;113.478;2023-04-15T14:32:05;92176.75;;;8.07
70415;BMP280;57837;52.064;113.478;2023-04-15T14:35:14;92158.00;;;8.06
70415;BMP280;57837;52.064;113.478;2023-04-15T14:38:18;92154.72;;;8.06
70415;BMP280;57837;52.064;113.478;2023-04-15T14:41:21;92162.63;;;8.02
70415;BMP280;57837;52.064;113.478;2023-04-15T14:44:25;92163.59;;;8.05
70415;BMP280;57837;52.064;113.478;2023-04-15T14:47:30;92151.44;;;8.05
70415;BMP280;57837;52.064;113.478;2023-04-15T14:50:34;92148.31;;;8.01
70415;BMP280;57837;52.064;113.478;2023-04-15T14:53:38;92148.09;;;7.99
70415;BMP280;57837;52.064;113.478;2023-04-15T14:56:42;92141.97;;;7.96
70415;BMP280;57837;52.064;113.478;2023-04-15T14:59:45;92133.25;;;7.94
70415;BMP280;57837;52.064;113.478;2023-04-15T15:02:48;92142.41;;;7.95
70415;BMP280;57837;52.064;113.478;2023-04-15T15:05:51;92146.13;;;7.94
70415;BMP280;57837;52.064;113.478;2023-04-15T15:08:54;92124.19;;;7.98
70415;BMP280;57837;52.064;113.478;2023-04-15T15:11:57;92121.34;;;7.96
70415;BMP280;57837;52.064;113.478;2023-04-15T15:15:02;92121.34;;;7.96
70415;BMP280;57837;52.064;113.478;2023-04-15T15:18:18;92119.66;;;7.93
70415;BMP280;57837;52.064;113.478;2023-04-15T15:21:22;92117.56;;;7.92
70415;BMP280;57837;52.064;113.478;2023-04-15T15:24:25;92121.25;;;7.85
70415;BMP280;57837;52.064;113.478;2023-04-15T15:27:29;92130.97;;;7.76
70415;BMP280;57837;52.064;113.478;2023-04-15T15:30:32;92121.88;;;7.60
70415;BMP280;57837;52.064;113.478;2023-04-15T15:33:36;92118.72;;;7.50
70415;BMP280;57837;52.064;113.478;2023-04-15T15:36:39;92116.06;;;7.45
70415;BMP280;57837;52.064;113.478;2023-04-15T15:39:43;92112.00;;;7.38
70415;BMP280;57837;52.064;113.478;2023-04-15T15:42:46;92114.97;;;7.31
70415;BMP280;57837;52.064;113.478;2023-04-15T15:45:52;92111.41;;;7.29
70415;BMP280;57837;52.064;113.478;2023-04-15T15:48:57;92103.44;;;7.27
70415;BMP280;57837;52.064;113.478;2023-04-15T15:52:01;92103.44;;;7.27
70415;BMP280;57837;52.064;113.478;2023-04-15T15:55:05;92104.75;;;7.22
70415;BMP280;57837;52.064;113.478;2023-04-15T15:58:08;92092.28;;;7.15
70415;BMP280;57837;52.064;113.478;2023-04-15T16:01:11;92093.16;;;7.12
70415;BMP280;57837;52.064;113.478;2023-04-15T16:04:15;92094.06;;;7.09
70415;BMP280;57837;52.064;113.478;2023-04-15T16:07:19;92082.81;;;7.06
70415;BMP280;57837;52.064;113.478;2023-04-15T16:10:22;92074.41;;;7.06
70415;BMP280;57837;52.064;113.478;2023-04-15T16:13:35;92066.72;;;7.11
70415;BMP280;57837;52.064;113.478;2023-04-15T16:16:47;92061.81;;;7.08
70415;BMP280;57837;52.064;113.478;2023-04-15T16:19:50;92054.34;;;7.10
70415;BMP280;57837;52.064;113.478;2023-04-15T16:23:07;92058.06;;;7.09
70415;BMP280;57837;52.064;113.478;2023-04-15T16:26:12;92054.44;;;7.01
70415;BMP280;57837;52.064;113.478;2023-04-15T16:29:16;92043.38;;;6.95
70415;BMP280;57837;52.064;113.478;2023-04-15T16:32:20;92037.25;;;6.92
70415;BMP280;57837;52.064;113.478;2023-04-15T16:35:27;92032.56;;;6.91
70415;BMP280;57837;52.064;113.478;2023-04-15T16:38:30;92021.13;;;6.92
70415;BMP280;57837;52.064;113.478;2023-04-15T16:41:33;92015.59;;;6.99
70415;BMP280;57837;52.064;113.478;2023-04-15T16:44:36;92028.09;;;7.06
70415;BMP280;57837;52.064;113.478;2023-04-15T16:47:40;92021.84;;;7.12
70415;BMP280;57837;52.064;113.478;2023-04-15T16:50:44;92029.22;;;7.19
70415;BMP280;57837;52.064;113.478;2023-04-15T16:53:48;92023.84;;;7.23
70415;BMP280;57837;52.064;113.478;2023-04-15T16:56:52;92009.31;;;7.20
70415;BMP280;57837;52.064;113.478;2023-04-15T16:59:55;92016.34;;;7.19
70415;BMP280;57837;52.064;113.478;2023-04-15T17:03:01;92019.03;;;7.10
70415;BMP280;57837;52.064;113.478;2023-04-15T17:06:05;92008.88;;;7.01
70415;BMP280;57837;52.064;113.478;2023-04-15T17:09:08;92014.44;;;7.00
70415;BMP280;57837;52.064;113.478;2023-04-15T17:12:12;91994.84;;;7.02
70415;BMP280;57837;52.064;113.478;2023-04-15T17:15:17;91993.53;;;7.07
70415;BMP280;57837;52.064;113.478;2023-04-15T17:18:21;91993.25;;;7.05